
Distance (Route):
Temperature : -36.2°C
Humidity : 72.7%
Pressure : 282.7hPa| Receiver | Frames | First received | Last received |
|---|---|---|---|
| PU1XMG-16 | 290 | 2026-09-05 23:34:50 | 2026-09-06 00:02:38 |
| Receiver | Date | Latitude | Longitude | Direction | Speed | Altitude | Climb | Temperature | Humidity | Pressure | Voltage | Killtimer | Uptime | BKT | XDATA |
|---|---|---|---|---|---|---|---|---|---|---|---|---|---|---|---|
| PU1XMG-16 | 2026-09-06 00:02:38 | -22.83456 | -42.93738 | 93° | 139km/h | 10054m | 5.9m/s | -36.2°C | 72.7% | 282.7hPa | 0V | 00:00:00 | 00:00:00 | 00:00:00 | |
| PU1XMG-16 | 2026-09-06 00:02:31 | -22.83457 | -42.93907 | 87° | 111km/h | 10018m | 7.9m/s | -35.8°C | 73.6% | 284.2hPa | 0V | 00:00:00 | 00:00:00 | 00:00:00 | |
| PU1XMG-16 | 2026-09-06 00:02:24 | -22.83469 | -42.94062 | 85° | 117km/h | 9989m | 7.3m/s | -35.6°C | 74.5% | 285.4hPa | 0V | 00:00:00 | 00:00:00 | 00:00:00 | |
| PU1XMG-16 | 2026-09-06 00:02:18 | -22.83483 | -42.94229 | 94° | 120km/h | 9960m | 5.7m/s | -35.4°C | 75.9% | 286.6hPa | 0V | 00:00:00 | 00:00:00 | 00:00:00 | |
| PU1XMG-16 | 2026-09-06 00:02:12 | -22.83459 | -42.94409 | 92° | 97km/h | 9921m | 5.5m/s | -35.1°C | 76.2% | 288.2hPa | 0V | 00:00:00 | 00:00:00 | 00:00:00 | |
| PU1XMG-16 | 2026-09-06 00:02:06 | -22.83471 | -42.94587 | 87° | 119km/h | 9879m | 7.2m/s | -34.7°C | 72.5% | 289.9hPa | 0V | 00:00:00 | 00:00:00 | 00:00:00 | |
| PU1XMG-16 | 2026-09-06 00:02:00 | -22.83461 | -42.94762 | 98° | 102km/h | 9835m | 2.1m/s | -34.4°C | 73.8% | 291.7hPa | 0V | 00:00:00 | 00:00:00 | 00:00:00 | |
| PU1XMG-16 | 2026-09-06 00:01:57 | -22.83442 | -42.94906 | 100° | 113km/h | 9810m | 7.9m/s | -34.1°C | 72.1% | 292.7hPa | 0V | 00:00:00 | 00:00:00 | 00:00:00 | |
| PU1XMG-16 | 2026-09-06 00:01:54 | -22.83420 | -42.95088 | 93° | 108km/h | 9776m | 6.2m/s | -33.9°C | 72.9% | 294.2hPa | 0V | 00:00:00 | 00:00:00 | 00:00:00 | |
| PU1XMG-16 | 2026-09-06 00:01:48 | -22.83421 | -42.95227 | 95° | 102km/h | 9751m | 4.8m/s | -33.6°C | 73.6% | 295.2hPa | 0V | 00:00:00 | 00:00:00 | 00:00:00 | |
| PU1XMG-16 | 2026-09-06 00:01:42 | -22.83395 | -42.95408 | 94° | 106km/h | 9712m | 8.9m/s | -33.3°C | 71.5% | 296.8hPa | 0V | 00:00:00 | 00:00:00 | 00:00:00 | |
| PU1XMG-16 | 2026-09-06 00:01:35 | -22.83401 | -42.95549 | 92° | 111km/h | 9681m | 5.7m/s | -33.0°C | 72.1% | 298.3hPa | 0V | 00:00:00 | 00:00:00 | 00:00:00 | |
| PU1XMG-16 | 2026-09-06 00:01:29 | -22.83394 | -42.95745 | 92° | 110km/h | 9639m | 7.2m/s | -32.8°C | 71.7% | 299.9hPa | 0V | 00:00:00 | 00:00:00 | 00:00:00 | |
| PU1XMG-16 | 2026-09-06 00:01:25 | -22.83397 | -42.95881 | 93° | 91km/h | 9605m | 4.5m/s | -32.5°C | 70.6% | 301.4hPa | 0V | 00:00:00 | 00:00:00 | 00:00:00 | |
| PU1XMG-16 | 2026-09-06 00:01:18 | -22.83384 | -42.96036 | 95° | 104km/h | 9569m | 4.7m/s | -32.2°C | 69.9% | 303.0hPa | 0V | 00:00:00 | 00:00:00 | 00:00:00 | |
| PU1XMG-16 | 2026-09-06 00:01:14 | -22.83367 | -42.96184 | 101° | 113km/h | 9540m | 7.1m/s | -31.9°C | 69.4% | 304.2hPa | 0V | 00:00:00 | 00:00:00 | 00:00:00 | |
| PU1XMG-16 | 2026-09-06 00:01:08 | -22.83351 | -42.96358 | 91° | 95km/h | 9511m | 8.0m/s | -31.7°C | 69.2% | 305.4hPa | 0V | 00:00:00 | 00:00:00 | 00:00:00 | |
| PU1XMG-16 | 2026-09-06 00:01:01 | -22.83331 | -42.96483 | 101° | 104km/h | 9477m | 5.4m/s | -31.4°C | 69.1% | 306.9hPa | 0V | 00:00:00 | 00:00:00 | 00:00:00 | |
| PU1XMG-16 | 2026-09-06 00:00:55 | -22.83320 | -42.96631 | 96° | 115km/h | 9440m | 6.9m/s | -31.0°C | 67.1% | 308.5hPa | 0V | 00:00:00 | 00:00:00 | 00:00:00 | |
| PU1XMG-16 | 2026-09-06 00:00:49 | -22.83305 | -42.96799 | 98° | 97km/h | 9411m | 3.9m/s | -30.8°C | 68.3% | 309.7hPa | 0V | 00:00:00 | 00:00:00 | 00:00:00 | |
| PU1XMG-16 | 2026-09-06 00:00:46 | -22.83286 | -42.96969 | 104° | 115km/h | 9386m | 3.8m/s | -30.5°C | 66.4% | 310.9hPa | 0V | 00:00:00 | 00:00:00 | 00:00:00 | |
| PU1XMG-16 | 2026-09-06 00:00:41 | -22.83257 | -42.97161 | 93° | 104km/h | 9362m | 5.7m/s | -30.3°C | 63.8% | 311.9hPa | 0V | 00:00:00 | 00:00:00 | 00:00:00 | |
| PU1XMG-16 | 2026-09-06 00:00:31 | -22.83249 | -42.97297 | 96° | 108km/h | 9332m | 4.6m/s | -30.0°C | 63.6% | 313.2hPa | 0V | 00:00:00 | 00:00:00 | 00:00:00 | |
| PU1XMG-16 | 2026-09-06 00:00:26 | -22.83240 | -42.97479 | 93° | 99km/h | 9301m | 5.8m/s | -29.7°C | 62.1% | 314.6hPa | 0V | 00:00:00 | 00:00:00 | 00:00:00 | |
| PU1XMG-16 | 2026-09-06 00:00:21 | -22.83234 | -42.97617 | 95° | 100km/h | 9277m | 5.2m/s | -29.5°C | 61.8% | 315.6hPa | 0V | 00:00:00 | 00:00:00 | 00:00:00 | |
| PU1XMG-16 | 2026-09-06 00:00:19 | -22.83210 | -42.97746 | 105° | 106km/h | 9248m | 4.5m/s | -29.2°C | 60.1% | 316.9hPa | 0V | 00:00:00 | 00:00:00 | 00:00:00 | |
| PU1XMG-16 | 2026-09-06 00:00:11 | -22.83181 | -42.97898 | 98° | 113km/h | 9222m | 5.7m/s | -29.0°C | 59.4% | 318.1hPa | 0V | 00:00:00 | 00:00:00 | 00:00:00 | |
| PU1XMG-16 | 2026-09-06 00:00:05 | -22.83169 | -42.98077 | 104° | 106km/h | 9190m | 5.8m/s | -28.7°C | 58.5% | 319.4hPa | 0V | 00:00:00 | 00:00:00 | 00:00:00 | |
| PU1XMG-16 | 2026-09-05 23:59:58 | -22.83128 | -42.98251 | 101° | 108km/h | 9159m | 5.2m/s | -28.5°C | 58.7% | 320.8hPa | 0V | 00:00:00 | 00:00:00 | 00:00:00 | |
| PU1XMG-16 | 2026-09-05 23:59:54 | -22.83105 | -42.98388 | 102° | 104km/h | 9117m | 9.6m/s | -28.1°C | 57.7% | 322.6hPa | 0V | 00:00:00 | 00:00:00 | 00:00:00 | |
| PU1XMG-16 | 2026-09-05 23:59:49 | -22.83095 | -42.98517 | 90° | 91km/h | 9082m | 6.8m/s | -27.7°C | 56.8% | 324.2hPa | 0V | 00:00:00 | 00:00:00 | 00:00:00 | |
| PU1XMG-16 | 2026-09-05 23:59:42 | -22.83074 | -42.98692 | 104° | 106km/h | 9043m | 6.4m/s | -27.4°C | 56.3% | 326.0hPa | 0V | 00:00:00 | 00:00:00 | 00:00:00 | |
| PU1XMG-16 | 2026-09-05 23:59:36 | -22.83043 | -42.98860 | 111° | 104km/h | 8999m | 8.3m/s | -27.0°C | 55.1% | 328.0hPa | 0V | 00:00:00 | 00:00:00 | 00:00:00 | |
| PU1XMG-16 | 2026-09-05 23:59:32 | -22.83005 | -42.98986 | 106° | 93km/h | 8968m | 2.3m/s | -26.8°C | 55.5% | 329.4hPa | 0V | 00:00:00 | 00:00:00 | 00:00:00 | |
| PU1XMG-16 | 2026-09-05 23:59:26 | -22.82970 | -42.99113 | 104° | 99km/h | 8924m | 6.2m/s | -26.3°C | 54.9% | 331.4hPa | 0V | 00:00:00 | 00:00:00 | 00:00:00 | |
| PU1XMG-16 | 2026-09-05 23:59:20 | -22.82932 | -42.99269 | 105° | 108km/h | 8889m | 5.7m/s | -26.0°C | 55.0% | 333.0hPa | 0V | 00:00:00 | 00:00:00 | 00:00:00 | |
| PU1XMG-16 | 2026-09-05 23:59:09 | -22.82857 | -42.99567 | 95° | 102km/h | 8825m | 9.4m/s | -25.8°C | 58.6% | 336.1hPa | 0V | 00:00:00 | 00:00:00 | 00:00:00 | |
| PU1XMG-16 | 2026-09-05 23:59:04 | -22.82844 | -42.99712 | 100° | 102km/h | 8795m | 4.2m/s | -26.0°C | 82.0% | 337.4hPa | 0V | 00:00:00 | 00:00:00 | 00:00:00 | |
| PU1XMG-16 | 2026-09-05 23:58:59 | -22.82803 | -42.99872 | 111° | 106km/h | 8758m | 3.2m/s | -26.0°C | 90.8% | 339.1hPa | 0V | 00:00:00 | 00:00:00 | 00:00:00 | |
| PU1XMG-16 | 2026-09-05 23:58:53 | -22.82762 | -43.00010 | 108° | 104km/h | 8736m | 3.9m/s | -25.8°C | 93.7% | 340.3hPa | 0V | 00:00:00 | 00:00:00 | 00:00:00 | |
| PU1XMG-16 | 2026-09-05 23:58:47 | -22.82720 | -43.00175 | 106° | 106km/h | 8712m | 5.2m/s | -25.6°C | 95.1% | 341.4hPa | 0V | 00:00:00 | 00:00:00 | 00:00:00 | |
| PU1XMG-16 | 2026-09-05 23:58:42 | -22.82678 | -43.00318 | 109° | 111km/h | 8691m | 5.5m/s | -25.6°C | 95.7% | 342.3hPa | 0V | 00:00:00 | 00:00:00 | 00:00:00 | |
| PU1XMG-16 | 2026-09-05 23:58:38 | -22.82637 | -43.00463 | 106° | 111km/h | 8673m | 3.1m/s | -25.5°C | 94.5% | 343.2hPa | 0V | 00:00:00 | 00:00:00 | 00:00:00 | |
| PU1XMG-16 | 2026-09-05 23:58:33 | -22.82603 | -43.00606 | 106° | 108km/h | 8651m | 5.0m/s | -25.3°C | 93.2% | 344.1hPa | 0V | 00:00:00 | 00:00:00 | 00:00:00 | |
| PU1XMG-16 | 2026-09-05 23:58:26 | -22.82554 | -43.00794 | 105° | 97km/h | 8622m | 4.7m/s | -25.1°C | 95.0% | 345.6hPa | 0V | 00:00:00 | 00:00:00 | 00:00:00 | |
| PU1XMG-16 | 2026-09-05 23:58:19 | -22.82510 | -43.00940 | 110° | 106km/h | 8595m | 6.1m/s | -25.4°C | 99.2% | 346.8hPa | 0V | 00:00:00 | 00:00:00 | 00:00:00 | |
| PU1XMG-16 | 2026-09-05 23:58:15 | -22.82473 | -43.01081 | 106° | 97km/h | 8563m | 8.6m/s | -25.1°C | 98.7% | 348.3hPa | 0V | 00:00:00 | 00:00:00 | 00:00:00 | |
| PU1XMG-16 | 2026-09-05 23:58:09 | -22.82437 | -43.01207 | 102° | 95km/h | 8530m | 7.4m/s | -25.0°C | 99.9% | 349.9hPa | 0V | 00:00:00 | 00:00:00 | 00:00:00 | |
| PU1XMG-16 | 2026-09-05 23:58:03 | -22.82406 | -43.01351 | 111° | 104km/h | 8488m | 7.2m/s | -24.7°C | 99.2% | 351.9hPa | 0V | 00:00:00 | 00:00:00 | 00:00:00 | |
| PU1XMG-16 | 2026-09-05 23:57:58 | -22.82369 | -43.01476 | 104° | 78km/h | 8458m | 6.2m/s | -24.5°C | 99.1% | 353.5hPa | 0V | 00:00:00 | 00:00:00 | 00:00:00 | |
| PU1XMG-16 | 2026-09-05 23:57:52 | -22.82333 | -43.01603 | 106° | 91km/h | 8415m | 7.9m/s | -24.1°C | 99.3% | 355.6hPa | 0V | 00:00:00 | 00:00:00 | 00:00:00 | |
| PU1XMG-16 | 2026-09-05 23:57:40 | -22.82259 | -43.01881 | 104° | 100km/h | 8327m | 7.6m/s | -23.4°C | 94.8% | 359.7hPa | 0V | 00:00:00 | 00:00:00 | 00:00:00 | |
| PU1XMG-16 | 2026-09-05 23:57:27 | -22.82188 | -43.02173 | 108° | 80km/h | 8235m | 5.5m/s | -22.6°C | 90.2% | 364.4hPa | 0V | 00:00:00 | 00:00:00 | 00:00:00 | |
| PU1XMG-16 | 2026-09-05 23:57:22 | -22.82156 | -43.02292 | 110° | 91km/h | 8201m | 7.6m/s | -22.2°C | 87.7% | 366.0hPa | 0V | 00:00:00 | 00:00:00 | 00:00:00 | |
| PU1XMG-16 | 2026-09-05 23:57:16 | -22.82111 | -43.02428 | 107° | 71km/h | 8170m | 6.2m/s | -21.9°C | 85.6% | 367.7hPa | 0V | 00:00:00 | 00:00:00 | 00:00:00 | |
| PU1XMG-16 | 2026-09-05 23:57:11 | -22.82082 | -43.02549 | 101° | 84km/h | 8133m | 7.4m/s | -21.6°C | 83.6% | 369.5hPa | 0V | 00:00:00 | 00:00:00 | 00:00:00 | |
| PU1XMG-16 | 2026-09-05 23:57:05 | -22.82048 | -43.02692 | 106° | 97km/h | 8096m | 4.3m/s | -21.3°C | 82.8% | 371.2hPa | 0V | 00:00:00 | 00:00:00 | 00:00:00 | |
| PU1XMG-16 | 2026-09-05 23:56:58 | -22.82028 | -43.02835 | 95° | 89km/h | 8053m | 6.5m/s | -21.0°C | 80.2% | 373.4hPa | 0V | 00:00:00 | 00:00:00 | 00:00:00 | |
| PU1XMG-16 | 2026-09-05 23:56:54 | -22.82024 | -43.02950 | 93° | 75km/h | 8024m | 7.8m/s | -20.7°C | 77.8% | 374.8hPa | 0V | 00:00:00 | 00:00:00 | 00:00:00 | |
| PU1XMG-16 | 2026-09-05 23:56:48 | -22.81990 | -43.03073 | 112° | 80km/h | 7982m | 7.5m/s | -20.3°C | 78.1% | 377.0hPa | 0V | 00:00:00 | 00:00:00 | 00:00:00 | |
| PU1XMG-16 | 2026-09-05 23:56:43 | -22.81968 | -43.03182 | 100° | 82km/h | 7954m | 6.0m/s | -20.1°C | 76.5% | 378.4hPa | 0V | 00:00:00 | 00:00:00 | 00:00:00 | |
| PU1XMG-16 | 2026-09-05 23:56:37 | -22.81946 | -43.03293 | 107° | 82km/h | 7930m | 4.0m/s | -19.9°C | 76.3% | 379.7hPa | 0V | 00:00:00 | 00:00:00 | 00:00:00 | |
| PU1XMG-16 | 2026-09-05 23:56:31 | -22.81909 | -43.03417 | 108° | 73km/h | 7900m | 5.6m/s | -19.6°C | 73.9% | 381.3hPa | 0V | 00:00:00 | 00:00:00 | 00:00:00 | |
| PU1XMG-16 | 2026-09-05 23:56:26 | -22.81888 | -43.03518 | 102° | 77km/h | 7875m | 4.5m/s | -19.4°C | 74.4% | 382.5hPa | 0V | 00:00:00 | 00:00:00 | 00:00:00 | |
| PU1XMG-16 | 2026-09-05 23:56:22 | -22.81867 | -43.03633 | 106° | 89km/h | 7852m | 5.3m/s | -19.2°C | 73.3% | 383.7hPa | 0V | 00:00:00 | 00:00:00 | 00:00:00 | |
| PU1XMG-16 | 2026-09-05 23:56:15 | -22.81834 | -43.03753 | 109° | 73km/h | 7809m | 6.0m/s | -18.8°C | 70.7% | 385.8hPa | 0V | 00:00:00 | 00:00:00 | 00:00:00 | |
| PU1XMG-16 | 2026-09-05 23:56:10 | -22.81803 | -43.03856 | 105° | 80km/h | 7784m | 5.2m/s | -18.6°C | 70.2% | 387.0hPa | 0V | 00:00:00 | 00:00:00 | 00:00:00 | |
| PU1XMG-16 | 2026-09-05 23:56:04 | -22.81779 | -43.03972 | 107° | 69km/h | 7756m | 7.0m/s | -18.4°C | 70.0% | 388.6hPa | 0V | 00:00:00 | 00:00:00 | 00:00:00 | |
| PU1XMG-16 | 2026-09-05 23:55:58 | -22.81755 | -43.04093 | 101° | 78km/h | 7720m | 4.1m/s | -18.3°C | 75.1% | 390.5hPa | 0V | 00:00:00 | 00:00:00 | 00:00:00 | |
| PU1XMG-16 | 2026-09-05 23:55:54 | -22.81728 | -43.04198 | 106° | 78km/h | 7693m | 6.0m/s | -18.2°C | 75.6% | 391.9hPa | 0V | 00:00:00 | 00:00:00 | 00:00:00 | |
| PU1XMG-16 | 2026-09-05 23:55:49 | -22.81714 | -43.04316 | 98° | 91km/h | 7663m | 8.3m/s | -18.2°C | 69.3% | 393.5hPa | 0V | 00:00:00 | 00:00:00 | 00:00:00 | |
| PU1XMG-16 | 2026-09-05 23:55:42 | -22.81695 | -43.04439 | 101° | 71km/h | 7629m | 7.5m/s | -18.1°C | 56.6% | 395.2hPa | 0V | 00:00:00 | 00:00:00 | 00:00:00 | |
| PU1XMG-16 | 2026-09-05 23:55:37 | -22.81682 | -43.04543 | 94° | 80km/h | 7603m | 6.4m/s | -17.8°C | 53.3% | 396.7hPa | 0V | 00:00:00 | 00:00:00 | 00:00:00 | |
| PU1XMG-16 | 2026-09-05 23:55:31 | -22.81678 | -43.04665 | 96° | 68km/h | 7575m | 6.1m/s | -17.7°C | 46.4% | 398.1hPa | 0V | 00:00:00 | 00:00:00 | 00:00:00 | |
| PU1XMG-16 | 2026-09-05 23:55:25 | -22.81664 | -43.04773 | 100° | 73km/h | 7547m | 5.9m/s | -17.6°C | 43.0% | 399.6hPa | 0V | 00:00:00 | 00:00:00 | 00:00:00 | |
| PU1XMG-16 | 2026-09-05 23:55:14 | -22.81661 | -43.04997 | 88° | 73km/h | 7492m | 5.6m/s | -17.2°C | 52.0% | 402.6hPa | 0V | 00:00:00 | 00:00:00 | 00:00:00 | |
| PU1XMG-16 | 2026-09-05 23:55:08 | -22.81680 | -43.05124 | 83° | 80km/h | 7466m | 6.1m/s | -17.0°C | 56.1% | 404.0hPa | 0V | 00:00:00 | 00:00:00 | 00:00:00 | |
| PU1XMG-16 | 2026-09-05 23:55:04 | -22.81678 | -43.05221 | 99° | 68km/h | 7434m | 6.8m/s | -16.8°C | 63.6% | 405.6hPa | 0V | 00:00:00 | 00:00:00 | 00:00:00 | |
| PU1XMG-16 | 2026-09-05 23:54:58 | -22.81687 | -43.05315 | 74° | 77km/h | 7408m | 7.1m/s | -16.7°C | 62.1% | 407.0hPa | 0V | 00:00:00 | 00:00:00 | 00:00:00 | |
| PU1XMG-16 | 2026-09-05 23:54:52 | -22.81705 | -43.05443 | 95° | 84km/h | 7370m | 8.9m/s | -16.4°C | 57.9% | 409.1hPa | 0V | 00:00:00 | 00:00:00 | 00:00:00 | |
| PU1XMG-16 | 2026-09-05 23:54:46 | -22.81697 | -43.05582 | 91° | 77km/h | 7334m | 4.7m/s | -16.1°C | 56.3% | 411.1hPa | 0V | 00:00:00 | 00:00:00 | 00:00:00 | |
| PU1XMG-16 | 2026-09-05 23:54:41 | -22.81705 | -43.05709 | 84° | 80km/h | 7306m | 4.7m/s | -15.9°C | 51.2% | 412.7hPa | 0V | 00:00:00 | 00:00:00 | 00:00:00 | |
| PU1XMG-16 | 2026-09-05 23:54:35 | -22.81709 | -43.05819 | 86° | 82km/h | 7280m | 7.5m/s | -15.8°C | 43.2% | 414.1hPa | 0V | 00:00:00 | 00:00:00 | 00:00:00 | |
| PU1XMG-16 | 2026-09-05 23:54:30 | -22.81724 | -43.05939 | 87° | 93km/h | 7250m | 7.2m/s | -15.6°C | 38.5% | 415.6hPa | 0V | 00:00:00 | 00:00:00 | 00:00:00 | |
| PU1XMG-16 | 2026-09-05 23:54:24 | -22.81730 | -43.06089 | 90° | 93km/h | 7215m | 6.2m/s | -15.4°C | 26.9% | 417.5hPa | 0V | 00:00:00 | 00:00:00 | 00:00:00 | |
| PU1XMG-16 | 2026-09-05 23:54:19 | -22.81746 | -43.06247 | 79° | 95km/h | 7184m | 6.5m/s | -15.2°C | 23.2% | 419.2hPa | 0V | 00:00:00 | 00:00:00 | 00:00:00 | |
| PU1XMG-16 | 2026-09-05 23:54:12 | -22.81778 | -43.06395 | 81° | 89km/h | 7157m | 5.4m/s | -15.1°C | 22.6% | 420.8hPa | 0V | 00:00:00 | 00:00:00 | 00:00:00 | |
| PU1XMG-16 | 2026-09-05 23:54:08 | -22.81788 | -43.06520 | 89° | 95km/h | 7130m | 6.1m/s | -15.1°C | 24.3% | 422.3hPa | 0V | 00:00:00 | 00:00:00 | 00:00:00 | |
| PU1XMG-16 | 2026-09-05 23:54:02 | -22.81798 | -43.06675 | 88° | 91km/h | 7094m | 7.1m/s | -14.9°C | 24.5% | 424.2hPa | 0V | 00:00:00 | 00:00:00 | 00:00:00 | |
| PU1XMG-16 | 2026-09-05 23:53:57 | -22.81804 | -43.06788 | 83° | 82km/h | 7065m | 5.7m/s | -14.7°C | 23.7% | 425.7hPa | 0V | 00:00:00 | 00:00:00 | 00:00:00 | |
| PU1XMG-16 | 2026-09-05 23:53:50 | -22.81817 | -43.06916 | 90° | 82km/h | 7033m | 4.7m/s | -14.3°C | 23.3% | 427.6hPa | 0V | 00:00:00 | 00:00:00 | 00:00:00 | |
| PU1XMG-16 | 2026-09-05 23:53:45 | -22.81816 | -43.07033 | 91° | 84km/h | 7013m | 5.8m/s | -14.2°C | 25.5% | 429.0hPa | 0V | 00:00:00 | 00:00:00 | 00:00:00 | |
| PU1XMG-16 | 2026-09-05 23:53:39 | -22.81829 | -43.07168 | 85° | 91km/h | 6981m | 6.6m/s | -13.9°C | 25.3% | 430.7hPa | 0V | 00:00:00 | 00:00:00 | 00:00:00 | |
| PU1XMG-16 | 2026-09-05 23:53:34 | -22.81839 | -43.07295 | 86° | 84km/h | 6956m | 6.2m/s | -13.7°C | 27.6% | 432.1hPa | 0V | 00:00:00 | 00:00:00 | 00:00:00 | |
| PU1XMG-16 | 2026-09-05 23:53:28 | -22.81836 | -43.07428 | 97° | 80km/h | 6921m | 5.4m/s | -13.4°C | 30.6% | 434.1hPa | 0V | 00:00:00 | 00:00:00 | 00:00:00 | |
| PU1XMG-16 | 2026-09-05 23:53:23 | -22.81843 | -43.07532 | 82° | 80km/h | 6894m | 4.6m/s | -13.2°C | 34.2% | 435.8hPa | 0V | 00:00:00 | 00:00:00 | 00:00:00 | |
| PU1XMG-16 | 2026-09-05 23:53:17 | -22.81853 | -43.07649 | 88° | 62km/h | 6859m | 3.6m/s | -13.0°C | 29.4% | 437.6hPa | 0V | 00:00:00 | 00:00:00 | 00:00:00 | |
| PU1XMG-16 | 2026-09-05 23:53:12 | -22.81861 | -43.07751 | 88° | 89km/h | 6833m | 8.0m/s | -12.8°C | 25.9% | 439.0hPa | 0V | 00:00:00 | 00:00:00 | 00:00:00 | |
| PU1XMG-16 | 2026-09-05 23:53:06 | -22.81861 | -43.07889 | 89° | 82km/h | 6794m | 5.4m/s | -12.4°C | 23.2% | 441.1hPa | 0V | 00:00:00 | 00:00:00 | 00:00:00 | |
| PU1XMG-16 | 2026-09-05 23:53:00 | -22.81865 | -43.08024 | 82° | 77km/h | 6759m | 6.5m/s | -12.1°C | 22.6% | 443.2hPa | 0V | 00:00:00 | 00:00:00 | 00:00:00 | |
| PU1XMG-16 | 2026-09-05 23:52:55 | -22.81875 | -43.08133 | 86° | 86km/h | 6727m | 4.8m/s | -11.8°C | 22.7% | 445.1hPa | 0V | 00:00:00 | 00:00:00 | 00:00:00 | |
| PU1XMG-16 | 2026-09-05 23:52:50 | -22.81890 | -43.08242 | 82° | 78km/h | 6699m | 6.4m/s | -11.6°C | 22.7% | 446.8hPa | 0V | 00:00:00 | 00:00:00 | 00:00:00 | |
| PU1XMG-16 | 2026-09-05 23:52:44 | -22.81907 | -43.08373 | 85° | 82km/h | 6665m | 5.9m/s | -11.3°C | 23.4% | 448.7hPa | 0V | 00:00:00 | 00:00:00 | 00:00:00 | |
| PU1XMG-16 | 2026-09-05 23:52:39 | -22.81927 | -43.08517 | 82° | 84km/h | 6635m | 4.4m/s | -11.0°C | 24.0% | 450.4hPa | 0V | 00:00:00 | 00:00:00 | 00:00:00 | |
| PU1XMG-16 | 2026-09-05 23:52:33 | -22.81941 | -43.08627 | 85° | 82km/h | 6608m | 6.9m/s | -11.1°C | 26.2% | 452.1hPa | 0V | 00:00:00 | 00:00:00 | 00:00:00 | |
| PU1XMG-16 | 2026-09-05 23:52:29 | -22.81956 | -43.08731 | 83° | 75km/h | 6581m | 5.8m/s | -10.9°C | 24.6% | 453.7hPa | 0V | 00:00:00 | 00:00:00 | 00:00:00 | |
| PU1XMG-16 | 2026-09-05 23:52:22 | -22.81978 | -43.08859 | 78° | 89km/h | 6546m | 5.7m/s | -10.6°C | 24.5% | 455.8hPa | 0V | 00:00:00 | 00:00:00 | 00:00:00 | |
| PU1XMG-16 | 2026-09-05 23:52:16 | -22.82005 | -43.09009 | 82° | 88km/h | 6514m | 6.5m/s | -10.3°C | 24.9% | 457.5hPa | 0V | 00:00:00 | 00:00:00 | 00:00:00 | |
| PU1XMG-16 | 2026-09-05 23:52:11 | -22.82026 | -43.09148 | 84° | 88km/h | 6479m | 3.6m/s | -10.0°C | 25.9% | 459.8hPa | 0V | 00:00:00 | 00:00:00 | 00:00:00 | |
| PU1XMG-16 | 2026-09-05 23:52:05 | -22.82044 | -43.09263 | 82° | 82km/h | 6454m | 5.8m/s | -9.8°C | 25.4% | 461.2hPa | 0V | 00:00:00 | 00:00:00 | 00:00:00 | |
| PU1XMG-16 | 2026-09-05 23:51:59 | -22.82054 | -43.09402 | 92° | 91km/h | 6422m | 5.1m/s | -9.6°C | 24.8% | 463.1hPa | 0V | 00:00:00 | 00:00:00 | 00:00:00 | |
| PU1XMG-16 | 2026-09-05 23:51:54 | -22.82058 | -43.09524 | 85° | 86km/h | 6400m | 6.5m/s | -9.4°C | 25.9% | 464.5hPa | 0V | 00:00:00 | 00:00:00 | 00:00:00 | |
| PU1XMG-16 | 2026-09-05 23:51:49 | -22.82068 | -43.09648 | 89° | 86km/h | 6364m | 4.6m/s | -9.1°C | 26.2% | 466.6hPa | 0V | 00:00:00 | 00:00:00 | 00:00:00 | |
| PU1XMG-16 | 2026-09-05 23:51:44 | -22.82067 | -43.09763 | 88° | 84km/h | 6339m | 6.5m/s | -8.9°C | 26.5% | 468.1hPa | 0V | 00:00:00 | 00:00:00 | 00:00:00 | |
| PU1XMG-16 | 2026-09-05 23:51:38 | -22.82082 | -43.09899 | 84° | 80km/h | 6308m | 6.5m/s | -8.8°C | 27.3% | 470.1hPa | 0V | 00:00:00 | 00:00:00 | 00:00:00 | |
| PU1XMG-16 | 2026-09-05 23:51:32 | -22.82090 | -43.10040 | 89° | 84km/h | 6282m | 6.0m/s | -8.8°C | 30.1% | 471.9hPa | 0V | 00:00:00 | 00:00:00 | 00:00:00 | |
| PU1XMG-16 | 2026-09-05 23:51:27 | -22.82103 | -43.10158 | 84° | 86km/h | 6252m | 5.9m/s | -9.1°C | 42.7% | 473.5hPa | 0V | 00:00:00 | 00:00:00 | 00:00:00 | |
| PU1XMG-16 | 2026-09-05 23:51:21 | -22.82117 | -43.10293 | 80° | 77km/h | 6219m | 5.2m/s | -9.0°C | 45.2% | 475.6hPa | 0V | 00:00:00 | 00:00:00 | 00:00:00 | |
| PU1XMG-16 | 2026-09-05 23:51:16 | -22.82131 | -43.10410 | 90° | 86km/h | 6191m | 6.0m/s | -9.1°C | 55.7% | 477.1hPa | 0V | 00:00:00 | 00:00:00 | 00:00:00 | |
| PU1XMG-16 | 2026-09-05 23:51:10 | -22.82140 | -43.10546 | 90° | 88km/h | 6151m | 6.1m/s | -9.1°C | 63.5% | 479.7hPa | 0V | 00:00:00 | 00:00:00 | 00:00:00 | |
| PU1XMG-16 | 2026-09-05 23:51:05 | -22.82126 | -43.10647 | 99° | 62km/h | 6113m | 7.6m/s | -9.0°C | 84.7% | 481.8hPa | 0V | 00:00:00 | 00:00:00 | 00:00:00 | |
| PU1XMG-16 | 2026-09-05 23:50:59 | -22.82125 | -43.10752 | 91° | 69km/h | 6079m | 5.6m/s | -9.7°C | 0% | 483.9hPa | 0V | 00:00:00 | 00:00:00 | 00:00:00 | |
| PU1XMG-16 | 2026-09-05 23:50:54 | -22.82119 | -43.10851 | 94° | 82km/h | 6055m | 4.8m/s | -9.5°C | 0% | 485.6hPa | 0V | 00:00:00 | 00:00:00 | 00:00:00 | |
| PU1XMG-16 | 2026-09-05 23:50:48 | -22.82113 | -43.10983 | 95° | 60km/h | 6023m | 7.0m/s | -9.3°C | 0% | 487.5hPa | 0V | 00:00:00 | 00:00:00 | 00:00:00 | |
| PU1XMG-16 | 2026-09-05 23:50:43 | -22.82105 | -43.11059 | 93° | 69km/h | 5991m | 6.3m/s | -9.1°C | 0% | 489.6hPa | 0V | 00:00:00 | 00:00:00 | 00:00:00 | |
| PU1XMG-16 | 2026-09-05 23:50:38 | -22.82082 | -43.11176 | 114° | 60km/h | 5952m | 5.7m/s | -8.8°C | 0% | 492.2hPa | 0V | 00:00:00 | 00:00:00 | 00:00:00 | |
| PU1XMG-16 | 2026-09-05 23:50:32 | -22.82058 | -43.11268 | 99° | 84km/h | 5919m | 6.5m/s | -8.6°C | 0% | 494.3hPa | 0V | 00:00:00 | 00:00:00 | 00:00:00 | |
| PU1XMG-16 | 2026-09-05 23:50:26 | -22.82038 | -43.11395 | 101° | 64km/h | 5880m | 5.7m/s | -8.4°C | 0% | 496.8hPa | 0V | 00:00:00 | 00:00:00 | 00:00:00 | |
| PU1XMG-16 | 2026-09-05 23:50:15 | -22.82018 | -43.11606 | 109° | 78km/h | 5790m | 8.6m/s | -7.9°C | 98.8% | 502.4hPa | 0V | 00:00:00 | 00:00:00 | 00:00:00 | |
| PU1XMG-16 | 2026-09-05 23:50:10 | -22.81980 | -43.11703 | 113° | 77km/h | 5755m | 7.2m/s | -7.6°C | 98.0% | 504.5hPa | 0V | 00:00:00 | 00:00:00 | 00:00:00 | |
| PU1XMG-16 | 2026-09-05 23:50:05 | -22.81970 | -43.11821 | 87° | 69km/h | 5714m | 8.4m/s | -7.3°C | 97.6% | 507.2hPa | 0V | 00:00:00 | 00:00:00 | 00:00:00 | |
| PU1XMG-16 | 2026-09-05 23:49:58 | -22.81957 | -43.11928 | 97° | 73km/h | 5674m | 7.5m/s | -7.0°C | 97.1% | 509.9hPa | 0V | 00:00:00 | 00:00:00 | 00:00:00 | |
| PU1XMG-16 | 2026-09-05 23:49:53 | -22.81949 | -43.12032 | 107° | 75km/h | 5638m | 5.6m/s | -6.8°C | 96.9% | 512.1hPa | 0V | 00:00:00 | 00:00:00 | 00:00:00 | |
| PU1XMG-16 | 2026-09-05 23:49:48 | -22.81919 | -43.12127 | 102° | 75km/h | 5607m | 5.4m/s | -6.6°C | 95.7% | 514.2hPa | 0V | 00:00:00 | 00:00:00 | 00:00:00 | |
| PU1XMG-16 | 2026-09-05 23:49:42 | -22.81904 | -43.12245 | 99° | 62km/h | 5569m | 4.5m/s | -6.3°C | 95.7% | 516.6hPa | 0V | 00:00:00 | 00:00:00 | 00:00:00 | |
| PU1XMG-16 | 2026-09-05 23:49:36 | -22.81884 | -43.12353 | 104° | 64km/h | 5530m | 3.5m/s | -6.1°C | 97.3% | 519.2hPa | 0V | 00:00:00 | 00:00:00 | 00:00:00 | |
| PU1XMG-16 | 2026-09-05 23:49:30 | -22.81853 | -43.12459 | 109° | 68km/h | 5487m | 6.4m/s | -5.8°C | 95.1% | 522.0hPa | 0V | 00:00:00 | 00:00:00 | 00:00:00 | |
| PU1XMG-16 | 2026-09-05 23:49:25 | -22.81833 | -43.12562 | 104° | 80km/h | 5460m | 8.2m/s | -5.6°C | 93.5% | 524.0hPa | 0V | 00:00:00 | 00:00:00 | 00:00:00 | |
| PU1XMG-16 | 2026-09-05 23:49:19 | -22.81824 | -43.12679 | 90° | 73km/h | 5423m | 6.9m/s | -5.6°C | 100.0% | 526.3hPa | 0V | 00:00:00 | 00:00:00 | 00:00:00 | |
| PU1XMG-16 | 2026-09-05 23:49:14 | -22.81809 | -43.12768 | 108° | 57km/h | 5396m | 5.5m/s | -5.4°C | 97.3% | 528.3hPa | 0V | 00:00:00 | 00:00:00 | 00:00:00 | |
| PU1XMG-16 | 2026-09-05 23:49:08 | -22.81785 | -43.12875 | 111° | 80km/h | 5362m | 7.6m/s | -5.1°C | 95.7% | 530.6hPa | 0V | 00:00:00 | 00:00:00 | 00:00:00 | |
| PU1XMG-16 | 2026-09-05 23:49:02 | -22.81763 | -43.12995 | 91° | 75km/h | 5327m | 8.6m/s | -5.0°C | 98.9% | 532.8hPa | 0V | 00:00:00 | 00:00:00 | 00:00:00 | |
| PU1XMG-16 | 2026-09-05 23:48:57 | -22.81751 | -43.13109 | 96° | 71km/h | 5293m | 9.3m/s | -4.7°C | 97.5% | 535.2hPa | 0V | 00:00:00 | 00:00:00 | 00:00:00 | |
| PU1XMG-16 | 2026-09-05 23:48:51 | -22.81727 | -43.13223 | 112° | 66km/h | 5253m | 9.8m/s | -4.5°C | 97.2% | 537.8hPa | 0V | 00:00:00 | 00:00:00 | 00:00:00 | |
| PU1XMG-16 | 2026-09-05 23:48:46 | -22.81712 | -43.13312 | 102° | 75km/h | 5222m | 6.8m/s | -4.3°C | 97.1% | 539.9hPa | 0V | 00:00:00 | 00:00:00 | 00:00:00 | |
| PU1XMG-16 | 2026-09-05 23:48:39 | -22.81674 | -43.13413 | 107° | 57km/h | 5194m | 5.0m/s | -4.1°C | 97.4% | 541.9hPa | 0V | 00:00:00 | 00:00:00 | 00:00:00 | |
| PU1XMG-16 | 2026-09-05 23:48:33 | -22.81660 | -43.13527 | 106° | 78km/h | 5172m | 5.1m/s | -3.9°C | 94.1% | 543.6hPa | 0V | 00:00:00 | 00:00:00 | 00:00:00 | |
| PU1XMG-16 | 2026-09-05 23:48:28 | -22.81614 | -43.13635 | 114° | 69km/h | 5142m | 6.7m/s | -3.6°C | 93.1% | 545.6hPa | 0V | 00:00:00 | 00:00:00 | 00:00:00 | |
| PU1XMG-16 | 2026-09-05 23:48:22 | -22.81594 | -43.13735 | 101° | 86km/h | 5112m | 5.9m/s | -3.5°C | 94.9% | 547.6hPa | 0V | 00:00:00 | 00:00:00 | 00:00:00 | |
| PU1XMG-16 | 2026-09-05 23:48:17 | -22.81574 | -43.13836 | 106° | 64km/h | 5089m | 4.5m/s | -3.4°C | 95.0% | 549.1hPa | 0V | 00:00:00 | 00:00:00 | 00:00:00 | |
| PU1XMG-16 | 2026-09-05 23:48:11 | -22.81536 | -43.13945 | 103° | 75km/h | 5056m | 5.1m/s | -3.2°C | 95.1% | 551.6hPa | 0V | 00:00:00 | 00:00:00 | 00:00:00 | |
| PU1XMG-16 | 2026-09-05 23:48:05 | -22.81517 | -43.14044 | 112° | 58km/h | 5020m | 5.8m/s | -2.9°C | 93.2% | 553.9hPa | 0V | 00:00:00 | 00:00:00 | 00:00:00 | |
| PU1XMG-16 | 2026-09-05 23:48:01 | -22.81486 | -43.14138 | 103° | 80km/h | 4994m | 5.0m/s | -2.7°C | 93.7% | 555.9hPa | 0V | 00:00:00 | 00:00:00 | 00:00:00 | |
| PU1XMG-16 | 2026-09-05 23:47:55 | -22.81469 | -43.14242 | 99° | 73km/h | 4957m | 8.8m/s | -2.6°C | 97.1% | 558.3hPa | 0V | 00:00:00 | 00:00:00 | 00:00:00 | |
| PU1XMG-16 | 2026-09-05 23:47:49 | -22.81459 | -43.14362 | 104° | 82km/h | 4922m | 6.3m/s | -2.5°C | 98.1% | 560.7hPa | 0V | 00:00:00 | 00:00:00 | 00:00:00 | |
| PU1XMG-16 | 2026-09-05 23:47:43 | -22.81433 | -43.14488 | 96° | 80km/h | 4892m | 6.3m/s | -2.3°C | 98.3% | 562.9hPa | 0V | 00:00:00 | 00:00:00 | 00:00:00 | |
| PU1XMG-16 | 2026-09-05 23:47:38 | -22.81421 | -43.14600 | 95° | 78km/h | 4866m | 5.7m/s | -2.1°C | 98.5% | 564.7hPa | 0V | 00:00:00 | 00:00:00 | 00:00:00 | |
| PU1XMG-16 | 2026-09-05 23:47:32 | -22.81412 | -43.14729 | 103° | 80km/h | 4830m | 6.4m/s | -2.0°C | 99.0% | 567.2hPa | 0V | 00:00:00 | 00:00:00 | 00:00:00 | |
| PU1XMG-16 | 2026-09-05 23:47:28 | -22.81395 | -43.14816 | 100° | 62km/h | 4802m | 6.9m/s | -1.8°C | 98.0% | 569.1hPa | 0V | 00:00:00 | 00:00:00 | 00:00:00 | |
| PU1XMG-16 | 2026-09-05 23:47:22 | -22.81372 | -43.14914 | 107° | 78km/h | 4769m | 5.5m/s | -1.8°C | 0% | 571.6hPa | 0V | 00:00:00 | 00:00:00 | 00:00:00 | |
| PU1XMG-16 | 2026-09-05 23:47:16 | -22.81339 | -43.15034 | 111° | 77km/h | 4741m | 5.6m/s | -1.6°C | 0% | 573.6hPa | 0V | 00:00:00 | 00:00:00 | 00:00:00 | |
| PU1XMG-16 | 2026-09-05 23:47:11 | -22.81312 | -43.15143 | 99° | 84km/h | 4719m | 4.5m/s | -1.5°C | 0% | 575.1hPa | 0V | 00:00:00 | 00:00:00 | 00:00:00 | |
| PU1XMG-16 | 2026-09-05 23:47:07 | -22.81298 | -43.15263 | 97° | 91km/h | 4694m | 5.2m/s | -1.4°C | 0% | 576.9hPa | 0V | 00:00:00 | 00:00:00 | 00:00:00 | |
| PU1XMG-16 | 2026-09-05 23:47:00 | -22.81286 | -43.15379 | 100° | 62km/h | 4663m | 5.4m/s | -1.3°C | 99.8% | 579.3hPa | 0V | 00:00:00 | 00:00:00 | 00:00:00 | |
| PU1XMG-16 | 2026-09-05 23:46:54 | -22.81259 | -43.15499 | 104° | 84km/h | 4634m | 7.0m/s | -1.1°C | 99.1% | 581.3hPa | 0V | 00:00:00 | 00:00:00 | 00:00:00 | |
| PU1XMG-16 | 2026-09-05 23:46:49 | -22.81247 | -43.15607 | 102° | 75km/h | 4606m | 5.8m/s | -0.9°C | 97.6% | 583.2hPa | 0V | 00:00:00 | 00:00:00 | 00:00:00 | |
| PU1XMG-16 | 2026-09-05 23:46:44 | -22.81220 | -43.15699 | 102° | 58km/h | 4577m | 4.2m/s | 0°C | 0% | 585.2hPa | 0V | 00:00:00 | 00:00:00 | 00:00:00 | |
| PU1XMG-16 | 2026-09-05 23:46:38 | -22.81211 | -43.15809 | 97° | 77km/h | 4545m | 5.5m/s | 0°C | 0% | 587.6hPa | 0V | 00:00:00 | 00:00:00 | 00:00:00 | |
| PU1XMG-16 | 2026-09-05 23:46:32 | -22.81194 | -43.15927 | 106° | 69km/h | 4504m | 8.1m/s | -0.7°C | 89.6% | 590.9hPa | 0V | 00:00:00 | 00:00:00 | 00:00:00 | |
| PU1XMG-16 | 2026-09-05 23:46:26 | -22.81180 | -43.16043 | 91° | 80km/h | 4469m | 7.2m/s | -77.8°C | 0% | 593.4hPa | 0V | 00:00:00 | 00:00:00 | 00:00:00 | |
| PU1XMG-16 | 2026-09-05 23:46:21 | -22.81180 | -43.16140 | 97° | 73km/h | 4439m | 5.6m/s | 0°C | 0% | 595.7hPa | 0V | 00:00:00 | 00:00:00 | 00:00:00 | |
| PU1XMG-16 | 2026-09-05 23:46:16 | -22.81177 | -43.16252 | 90° | 80km/h | 4410m | 6.5m/s | 0°C | 0% | 597.9hPa | 0V | 00:00:00 | 00:00:00 | 00:00:00 | |
| PU1XMG-16 | 2026-09-05 23:46:12 | -22.81171 | -43.16362 | 91° | 82km/h | 4383m | 6.7m/s | 0°C | 0% | 600.1hPa | 0V | 00:00:00 | 00:00:00 | 00:00:00 | |
| PU1XMG-16 | 2026-09-05 23:46:06 | -22.81169 | -43.16489 | 94° | 86km/h | 4345m | 4.8m/s | 0°C | 0% | 603.0hPa | 0V | 00:00:00 | 00:00:00 | 00:00:00 | |
| PU1XMG-16 | 2026-09-05 23:46:00 | -22.81168 | -43.16613 | 93° | 95km/h | 4307m | 7.4m/s | 0°C | 0% | 605.7hPa | 0V | 00:00:00 | 00:00:00 | 00:00:00 | |
| PU1XMG-16 | 2026-09-05 23:45:55 | -22.81169 | -43.16727 | 82° | 75km/h | 4279m | 5.2m/s | 0°C | 0% | 607.7hPa | 0V | 00:00:00 | 00:00:00 | 00:00:00 | |
| PU1XMG-16 | 2026-09-05 23:45:50 | -22.81179 | -43.16842 | 93° | 91km/h | 4247m | 6.2m/s | 0°C | 0% | 610.0hPa | 0V | 00:00:00 | 00:00:00 | 00:00:00 | |
| PU1XMG-16 | 2026-09-05 23:45:44 | -22.81174 | -43.16977 | 89° | 82km/h | 4209m | 8.0m/s | -77.8°C | 0% | 613.2hPa | 0V | 00:00:00 | 00:00:00 | 00:00:00 | |
| PU1XMG-16 | 2026-09-05 23:45:39 | -22.81181 | -43.17089 | 91° | 88km/h | 4170m | 5.4m/s | -77.8°C | 0% | 616.1hPa | 0V | 00:00:00 | 00:00:00 | 00:00:00 | |
| PU1XMG-16 | 2026-09-05 23:45:33 | -22.81179 | -43.17218 | 82° | 71km/h | 4136m | 4.5m/s | 1.1°C | 99.7% | 618.6hPa | 0V | 00:00:00 | 00:00:00 | 00:00:00 | |
| PU1XMG-16 | 2026-09-05 23:45:28 | -22.81186 | -43.17319 | 96° | 75km/h | 4106m | 5.5m/s | 1.3°C | 99.1% | 620.9hPa | 0V | 00:00:00 | 00:00:00 | 00:00:00 | |
| PU1XMG-16 | 2026-09-05 23:45:22 | -22.81188 | -43.17448 | 92° | 78km/h | 4065m | 7.7m/s | 1.7°C | 97.5% | 624.2hPa | 0V | 00:00:00 | 00:00:00 | 00:00:00 | |
| PU1XMG-16 | 2026-09-05 23:45:17 | -22.81190 | -43.17547 | 84° | 80km/h | 4034m | 6.1m/s | -77.8°C | 0% | 626.5hPa | 0V | 00:00:00 | 00:00:00 | 00:00:00 | |
| PU1XMG-16 | 2026-09-05 23:45:11 | -22.81194 | -43.17676 | 86° | 71km/h | 3994m | 6.2m/s | -77.8°C | 0% | 629.6hPa | 0V | 00:00:00 | 00:00:00 | 00:00:00 | |
| PU1XMG-16 | 2026-09-05 23:45:05 | -22.81206 | -43.17812 | 92° | 88km/h | 3957m | 7.4m/s | 2.9°C | 94.1% | 632.5hPa | 0V | 00:00:00 | 00:00:00 | 00:00:00 | |
| PU1XMG-16 | 2026-09-05 23:45:00 | -22.81203 | -43.17911 | 85° | 60km/h | 3926m | 6.4m/s | -77.8°C | 0% | 634.9hPa | 0V | 00:00:00 | 00:00:00 | 00:00:00 | |
| PU1XMG-16 | 2026-09-05 23:44:55 | -22.81212 | -43.18004 | 92° | 75km/h | 3894m | 6.5m/s | -77.8°C | 0% | 637.3hPa | 0V | 00:00:00 | 00:00:00 | 00:00:00 | |
| PU1XMG-16 | 2026-09-05 23:44:50 | -22.81212 | -43.18102 | 92° | 77km/h | 3855m | 7.5m/s | 2.9°C | 98.6% | 640.4hPa | 0V | 00:00:00 | 00:00:00 | 00:00:00 | |
| PU1XMG-16 | 2026-09-05 23:44:44 | -22.81214 | -43.18222 | 92° | 77km/h | 3812m | 7.8m/s | -77.8°C | 0% | 643.7hPa | 0V | 00:00:00 | 00:00:00 | 00:00:00 | |
| PU1XMG-16 | 2026-09-05 23:44:38 | -22.81221 | -43.18350 | 92° | 80km/h | 3771m | 7.0m/s | 0°C | 0% | 647.0hPa | 0V | 00:00:00 | 00:00:00 | 00:00:00 | |
| PU1XMG-16 | 2026-09-05 23:44:33 | -22.81217 | -43.18445 | 87° | 58km/h | 3743m | 5.9m/s | 0°C | 0% | 649.1hPa | 0V | 00:00:00 | 00:00:00 | 00:00:00 | |
| PU1XMG-16 | 2026-09-05 23:44:27 | -22.81236 | -43.18563 | 83° | 88km/h | 3707m | 6.9m/s | 3.8°C | 98.0% | 651.9hPa | 0V | 00:00:00 | 00:00:00 | 00:00:00 | |
| PU1XMG-16 | 2026-09-05 23:44:22 | -22.81246 | -43.18695 | 90° | 69km/h | 3674m | 6.7m/s | 5.2°C | 90.6% | 654.8hPa | 0V | 00:00:00 | 00:00:00 | 00:00:00 | |
| PU1XMG-16 | 2026-09-05 23:44:16 | -22.81252 | -43.18791 | 88° | 68km/h | 3636m | 7.9m/s | 4.3°C | 97.8% | 657.8hPa | 0V | 00:00:00 | 00:00:00 | 00:00:00 | |
| PU1XMG-16 | 2026-09-05 23:44:10 | -22.81260 | -43.18921 | 88° | 77km/h | 3592m | 7.1m/s | 5.6°C | 90.1% | 661.3hPa | 0V | 00:00:00 | 00:00:00 | 00:00:00 | |
| PU1XMG-16 | 2026-09-05 23:44:04 | -22.81280 | -43.19041 | 83° | 84km/h | 3552m | 4.6m/s | -77.8°C | 0% | 664.5hPa | 0V | 00:00:00 | 00:00:00 | 00:00:00 | |
| PU1XMG-16 | 2026-09-05 23:43:58 | -22.81282 | -43.19168 | 87° | 64km/h | 3514m | 5.4m/s | 0°C | 0% | 667.5hPa | 0V | 00:00:00 | 00:00:00 | 00:00:00 | |
| PU1XMG-16 | 2026-09-05 23:43:53 | -22.81290 | -43.19256 | 86° | 62km/h | 3481m | 7.6m/s | 0°C | 0% | 670.2hPa | 0V | 00:00:00 | 00:00:00 | 00:00:00 | |
| PU1XMG-16 | 2026-09-05 23:43:48 | -22.81306 | -43.19348 | 84° | 77km/h | 3454m | 6.0m/s | 0°C | 0% | 672.5hPa | 0V | 00:00:00 | 00:00:00 | 00:00:00 | |
| PU1XMG-16 | 2026-09-05 23:43:43 | -22.81309 | -43.19446 | 85° | 69km/h | 3424m | 6.8m/s | 0°C | 0% | 675.1hPa | 0V | 00:00:00 | 00:00:00 | 00:00:00 | |
| PU1XMG-16 | 2026-09-05 23:43:37 | -22.81323 | -43.19571 | 89° | 68km/h | 3386m | 5.5m/s | 0°C | 0% | 678.2hPa | 0V | 00:00:00 | 00:00:00 | 00:00:00 | |
| PU1XMG-16 | 2026-09-05 23:43:32 | -22.81324 | -43.19664 | 86° | 69km/h | 3356m | 5.6m/s | 6.0°C | 98.4% | 680.7hPa | 0V | 00:00:00 | 00:00:00 | 00:00:00 | |
| PU1XMG-16 | 2026-09-05 23:43:22 | -22.81330 | -43.19839 | 96° | 66km/h | 3290m | 5.1m/s | 6.5°C | 96.5% | 686.1hPa | 0V | 00:00:00 | 00:00:00 | 00:00:00 | |
| PU1XMG-16 | 2026-09-05 23:43:16 | -22.81332 | -43.19947 | 96° | 60km/h | 3249m | 4.8m/s | 6.8°C | 94.3% | 689.7hPa | 0V | 00:00:00 | 00:00:00 | 00:00:00 | |
| PU1XMG-16 | 2026-09-05 23:43:11 | -22.81335 | -43.20023 | 80° | 62km/h | 3219m | 6.5m/s | 7.1°C | 92.1% | 692.1hPa | 0V | 00:00:00 | 00:00:00 | 00:00:00 | |
| PU1XMG-16 | 2026-09-05 23:43:06 | -22.81340 | -43.20118 | 99° | 69km/h | 3191m | 6.5m/s | 7.3°C | 90.3% | 694.6hPa | 0V | 00:00:00 | 00:00:00 | 00:00:00 | |
| PU1XMG-16 | 2026-09-05 23:43:01 | -22.81331 | -43.20197 | 88° | 53km/h | 3162m | 5.9m/s | 7.6°C | 89.5% | 696.9hPa | 0V | 00:00:00 | 00:00:00 | 00:00:00 | |
| PU1XMG-16 | 2026-09-05 23:42:56 | -22.81334 | -43.20277 | 94° | 55km/h | 3133m | 5.7m/s | 7.7°C | 89.6% | 699.3hPa | 0V | 00:00:00 | 00:00:00 | 00:00:00 | |
| PU1XMG-16 | 2026-09-05 23:42:51 | -22.81338 | -43.20357 | 83° | 68km/h | 3103m | 6.9m/s | 7.7°C | 88.5% | 701.8hPa | 0V | 00:00:00 | 00:00:00 | 00:00:00 | |
| PU1XMG-16 | 2026-09-05 23:42:46 | -22.81336 | -43.20462 | 99° | 51km/h | 3069m | 5.7m/s | 7.6°C | 94.2% | 704.6hPa | 0V | 00:00:00 | 00:00:00 | 00:00:00 | |
| PU1XMG-16 | 2026-09-05 23:42:40 | -22.81336 | -43.20536 | 94° | 64km/h | 3043m | 4.8m/s | 7.8°C | 94.0% | 706.9hPa | 0V | 00:00:00 | 00:00:00 | 00:00:00 | |
| PU1XMG-16 | 2026-09-05 23:42:35 | -22.81327 | -43.20613 | 91° | 47km/h | 3016m | 4.8m/s | 8.0°C | 92.9% | 709.1hPa | 0V | 00:00:00 | 00:00:00 | 00:00:00 | |
| PU1XMG-16 | 2026-09-05 23:42:30 | -22.81332 | -43.20687 | 92° | 53km/h | 2989m | 5.8m/s | 8.2°C | 91.2% | 711.4hPa | 0V | 00:00:00 | 00:00:00 | 00:00:00 | |
| PU1XMG-16 | 2026-09-05 23:42:19 | -22.81324 | -43.20854 | 93° | 51km/h | 2927m | 6.2m/s | 8.8°C | 87.9% | 716.7hPa | 0V | 00:00:00 | 00:00:00 | 00:00:00 | |
| PU1XMG-16 | 2026-09-05 23:42:14 | -22.81330 | -43.20947 | 95° | 60km/h | 2896m | 4.5m/s | 9.1°C | 86.6% | 719.4hPa | 0V | 00:00:00 | 00:00:00 | 00:00:00 | |
| PU1XMG-16 | 2026-09-05 23:42:07 | -22.81329 | -43.21043 | 90° | 49km/h | 2862m | 4.6m/s | 9.4°C | 83.9% | 722.2hPa | 0V | 00:00:00 | 00:00:00 | 00:00:00 | |
| PU1XMG-16 | 2026-09-05 23:42:01 | -22.81327 | -43.21130 | 94° | 58km/h | 2830m | 7.9m/s | 9.7°C | 83.3% | 725.1hPa | 0V | 00:00:00 | 00:00:00 | 00:00:00 | |
| PU1XMG-16 | 2026-09-05 23:41:56 | -22.81325 | -43.21202 | 81° | 55km/h | 2802m | 7.8m/s | 9.9°C | 82.7% | 727.5hPa | 0V | 00:00:00 | 00:00:00 | 00:00:00 | |
| PU1XMG-16 | 2026-09-05 23:41:50 | -22.81323 | -43.21295 | 101° | 46km/h | 2770m | 2.9m/s | 10.3°C | 80.1% | 730.4hPa | 0V | 00:00:00 | 00:00:00 | 00:00:00 | |
| PU1XMG-16 | 2026-09-05 23:41:46 | -22.81325 | -43.21364 | 86° | 66km/h | 2746m | 4.4m/s | 10.5°C | 79.1% | 732.6hPa | 0V | 00:00:00 | 00:00:00 | 00:00:00 | |
| PU1XMG-16 | 2026-09-05 23:41:39 | -22.81318 | -43.21469 | 98° | 49km/h | 2722m | 4.3m/s | 10.7°C | 79.3% | 734.8hPa | 0V | 00:00:00 | 00:00:00 | 00:00:00 | |
| PU1XMG-16 | 2026-09-05 23:41:35 | -22.81316 | -43.21541 | 94° | 58km/h | 2699m | 5.1m/s | 10.9°C | 78.0% | 736.8hPa | 0V | 00:00:00 | 00:00:00 | 00:00:00 | |
| PU1XMG-16 | 2026-09-05 23:41:29 | -22.81318 | -43.21632 | 86° | 66km/h | 2668m | 4.8m/s | 11.2°C | 76.6% | 739.7hPa | 0V | 00:00:00 | 00:00:00 | 00:00:00 | |
| PU1XMG-16 | 2026-09-05 23:41:23 | -22.81311 | -43.21719 | 104° | 53km/h | 2645m | 5.5m/s | 11.4°C | 75.9% | 741.6hPa | 0V | 00:00:00 | 00:00:00 | 00:00:00 | |
| PU1XMG-16 | 2026-09-05 23:41:17 | -22.81300 | -43.21794 | 101° | 53km/h | 2618m | 6.3m/s | 11.6°C | 75.6% | 743.9hPa | 0V | 00:00:00 | 00:00:00 | 00:00:00 | |
| PU1XMG-16 | 2026-09-05 23:41:12 | -22.81297 | -43.21878 | 94° | 62km/h | 2592m | 6.7m/s | 11.9°C | 74.0% | 746.5hPa | 0V | 00:00:00 | 00:00:00 | 00:00:00 | |
| PU1XMG-16 | 2026-09-05 23:41:07 | -22.81288 | -43.21973 | 102° | 51km/h | 2558m | 5.6m/s | 12.2°C | 72.5% | 749.5hPa | 0V | 00:00:00 | 00:00:00 | 00:00:00 | |
| PU1XMG-16 | 2026-09-05 23:41:02 | -22.81288 | -43.22047 | 93° | 66km/h | 2534m | 5.9m/s | 12.4°C | 71.2% | 751.7hPa | 0V | 00:00:00 | 00:00:00 | 00:00:00 | |
| PU1XMG-16 | 2026-09-05 23:40:55 | -22.81267 | -43.22141 | 108° | 53km/h | 2505m | 4.4m/s | 12.6°C | 71.9% | 754.3hPa | 0V | 00:00:00 | 00:00:00 | 00:00:00 | |
| PU1XMG-16 | 2026-09-05 23:40:50 | -22.81250 | -43.22216 | 102° | 58km/h | 2476m | 10.2m/s | 12.9°C | 71.4% | 756.6hPa | 0V | 00:00:00 | 00:00:00 | 00:00:00 | |
| PU1XMG-16 | 2026-09-05 23:40:45 | -22.81249 | -43.22290 | 91° | 60km/h | 2441m | 4.6m/s | 13.1°C | 70.7% | 759.8hPa | 0V | 00:00:00 | 00:00:00 | 00:00:00 | |
| PU1XMG-16 | 2026-09-05 23:40:39 | -22.81241 | -43.22380 | 90° | 55km/h | 2408m | 4.9m/s | 13.4°C | 70.1% | 762.6hPa | 0V | 00:00:00 | 00:00:00 | 00:00:00 | |
| PU1XMG-16 | 2026-09-05 23:40:34 | -22.81233 | -43.22467 | 106° | 60km/h | 2385m | 6.4m/s | 13.5°C | 70.4% | 764.8hPa | 0V | 00:00:00 | 00:00:00 | 00:00:00 | |
| PU1XMG-16 | 2026-09-05 23:40:29 | -22.81223 | -43.22541 | 95° | 62km/h | 2356m | 4.3m/s | 13.8°C | 70.0% | 767.6hPa | 0V | 00:00:00 | 00:00:00 | 00:00:00 | |
| PU1XMG-16 | 2026-09-05 23:40:24 | -22.81203 | -43.22634 | 100° | 49km/h | 2320m | 4.4m/s | 14.1°C | 68.8% | 770.7hPa | 0V | 00:00:00 | 00:00:00 | 00:00:00 | |
| PU1XMG-16 | 2026-09-05 23:40:17 | -22.81193 | -43.22736 | 106° | 66km/h | 2286m | 4.6m/s | 14.0°C | 71.3% | 773.8hPa | 0V | 00:00:00 | 00:00:00 | 00:00:00 | |
| PU1XMG-16 | 2026-09-05 23:40:12 | -22.81177 | -43.22809 | 92° | 47km/h | 2261m | 6.3m/s | 14.1°C | 71.6% | 776.0hPa | 0V | 00:00:00 | 00:00:00 | 00:00:00 | |
| PU1XMG-16 | 2026-09-05 23:40:00 | -22.81154 | -43.23011 | 96° | 60km/h | 2188m | 5.9m/s | 14.1°C | 74.4% | 782.9hPa | 0V | 00:00:00 | 00:00:00 | 00:00:00 | |
| PU1XMG-16 | 2026-09-05 23:39:55 | -22.81153 | -43.23099 | 95° | 69km/h | 2160m | 7.2m/s | 14.3°C | 74.2% | 785.7hPa | 0V | 00:00:00 | 00:00:00 | 00:00:00 | |
| PU1XMG-16 | 2026-09-05 23:39:49 | -22.81140 | -43.23190 | 94° | 53km/h | 2124m | 3.8m/s | 14.4°C | 73.9% | 788.7hPa | 0V | 00:00:00 | 00:00:00 | 00:00:00 | |
| PU1XMG-16 | 2026-09-05 23:39:45 | -22.81137 | -43.23269 | 93° | 58km/h | 2096m | 8.2m/s | 14.6°C | 71.3% | 791.4hPa | 0V | 00:00:00 | 00:00:00 | 00:00:00 | |
| PU1XMG-16 | 2026-09-05 23:39:38 | -22.81133 | -43.23374 | 94° | 58km/h | 2059m | 7.1m/s | 14.8°C | 70.5% | 794.9hPa | 0V | 00:00:00 | 00:00:00 | 00:00:00 | |
| PU1XMG-16 | 2026-09-05 23:39:32 | -22.81129 | -43.23469 | 88° | 53km/h | 2024m | 9.1m/s | 15.1°C | 69.4% | 798.2hPa | 0V | 00:00:00 | 00:00:00 | 00:00:00 | |
| PU1XMG-16 | 2026-09-05 23:39:27 | -22.81119 | -43.23549 | 100° | 66km/h | 1989m | 7.7m/s | 15.3°C | 68.7% | 801.3hPa | 0V | 00:00:00 | 00:00:00 | 00:00:00 | |
| PU1XMG-16 | 2026-09-05 23:39:23 | -22.81107 | -43.23635 | 106° | 58km/h | 1958m | 5.6m/s | 15.6°C | 67.7% | 804.2hPa | 0V | 00:00:00 | 00:00:00 | 00:00:00 | |
| PU1XMG-16 | 2026-09-05 23:39:22 | -22.81100 | -43.23723 | 97° | 58km/h | 1925m | 8.1m/s | 15.9°C | 66.3% | 807.3hPa | 0V | 00:00:00 | 00:00:00 | 00:00:00 | |
| PU1XMG-16 | 2026-09-05 23:39:21 | -22.81076 | -43.23826 | 104° | 58km/h | 1889m | 6.0m/s | 16.1°C | 64.8% | 810.8hPa | 0V | 00:00:00 | 00:00:00 | 00:00:00 | |
| PU1XMG-16 | 2026-09-05 23:39:05 | -22.81067 | -43.23904 | 102° | 60km/h | 1863m | 5.3m/s | 16.2°C | 64.2% | 813.2hPa | 0V | 00:00:00 | 00:00:00 | 00:00:00 | |
| PU1XMG-16 | 2026-09-05 23:39:00 | -22.81051 | -43.23993 | 99° | 60km/h | 1830m | 5.4m/s | 16.2°C | 65.7% | 816.6hPa | 0V | 00:00:00 | 00:00:00 | 00:00:00 | |
| PU1XMG-16 | 2026-09-05 23:38:54 | -22.81034 | -43.24073 | 99° | 55km/h | 1805m | 4.9m/s | 16.2°C | 66.2% | 819.0hPa | 0V | 00:00:00 | 00:00:00 | 00:00:00 | |
| PU1XMG-16 | 2026-09-05 23:38:48 | -22.81024 | -43.24147 | 99° | 46km/h | 1768m | 5.8m/s | 16.5°C | 65.3% | 822.1hPa | 0V | 00:00:00 | 00:00:00 | 00:00:00 | |
| PU1XMG-16 | 2026-09-05 23:38:43 | -22.81018 | -43.24204 | 105° | 44km/h | 1736m | 6.6m/s | 16.7°C | 64.2% | 825.1hPa | 0V | 00:00:00 | 00:00:00 | 00:00:00 | |
| PU1XMG-16 | 2026-09-05 23:38:37 | -22.81002 | -43.24274 | 112° | 42km/h | 1703m | 3.9m/s | 17.0°C | 63.5% | 828.6hPa | 0V | 00:00:00 | 00:00:00 | 00:00:00 | |
| PU1XMG-16 | 2026-09-05 23:38:33 | -22.80997 | -43.24323 | 90° | 42km/h | 1674m | 8.1m/s | 17.0°C | 63.6% | 831.5hPa | 0V | 00:00:00 | 00:00:00 | 00:00:00 | |
| PU1XMG-16 | 2026-09-05 23:38:26 | -22.80985 | -43.24396 | 104° | 33km/h | 1637m | 4.0m/s | 17.2°C | 62.5% | 835.2hPa | 0V | 00:00:00 | 00:00:00 | 00:00:00 | |
| PU1XMG-16 | 2026-09-05 23:38:21 | -22.80982 | -43.24445 | 89° | 47km/h | 1613m | 6.7m/s | 17.0°C | 64.2% | 837.7hPa | 0V | 00:00:00 | 00:00:00 | 00:00:00 | |
| PU1XMG-16 | 2026-09-05 23:38:16 | -22.80976 | -43.24507 | 97° | 35km/h | 1585m | 5.3m/s | 16.9°C | 66.4% | 840.4hPa | 0V | 00:00:00 | 00:00:00 | 00:00:00 | |
| PU1XMG-16 | 2026-09-05 23:38:10 | -22.80983 | -43.24578 | 91° | 47km/h | 1548m | 5.9m/s | 16.3°C | 75.6% | 844.0hPa | 0V | 00:00:00 | 00:00:00 | 00:00:00 | |
| PU1XMG-16 | 2026-09-05 23:38:05 | -22.80980 | -43.24638 | 102° | 44km/h | 1520m | 7.3m/s | 15.9°C | 82.1% | 846.7hPa | 0V | 00:00:00 | 00:00:00 | 00:00:00 | |
| PU1XMG-16 | 2026-09-05 23:37:59 | -22.80980 | -43.24709 | 93° | 42km/h | 1480m | 7.4m/s | 15.8°C | 84.9% | 850.7hPa | 0V | 00:00:00 | 00:00:00 | 00:00:00 | |
| PU1XMG-16 | 2026-09-05 23:37:54 | -22.80979 | -43.24759 | 99° | 29km/h | 1447m | 6.9m/s | 15.8°C | 86.8% | 853.9hPa | 0V | 00:00:00 | 00:00:00 | 00:00:00 | |
| PU1XMG-16 | 2026-09-05 23:37:48 | -22.80985 | -43.24810 | 78° | 29km/h | 1410m | 6.0m/s | 15.9°C | 87.1% | 857.4hPa | 0V | 00:00:00 | 00:00:00 | 00:00:00 | |
| PU1XMG-16 | 2026-09-05 23:37:43 | -22.80986 | -43.24856 | 96° | 31km/h | 1380m | 9.5m/s | 15.9°C | 89.2% | 860.4hPa | 0V | 00:00:00 | 00:00:00 | 00:00:00 | |
| PU1XMG-16 | 2026-09-05 23:37:37 | -22.80977 | -43.24898 | 93° | 24km/h | 1341m | 6.8m/s | 15.9°C | 90.6% | 864.1hPa | 0V | 00:00:00 | 00:00:00 | 00:00:00 | |
| PU1XMG-16 | 2026-09-05 23:37:31 | -22.80979 | -43.24938 | 83° | 22km/h | 1302m | 6.0m/s | 16.1°C | 90.0% | 868.3hPa | 0V | 00:00:00 | 00:00:00 | 00:00:00 | |
| PU1XMG-16 | 2026-09-05 23:37:25 | -22.80980 | -43.24977 | 95° | 20km/h | 1267m | 4.2m/s | 16.3°C | 89.9% | 871.9hPa | 0V | 00:00:00 | 00:00:00 | 00:00:00 | |
| PU1XMG-16 | 2026-09-05 23:37:20 | -22.80984 | -43.25000 | 91° | 15km/h | 1235m | 6.4m/s | 16.3°C | 90.3% | 875.1hPa | 0V | 00:00:00 | 00:00:00 | 00:00:00 | |
| PU1XMG-16 | 2026-09-05 23:37:15 | -22.80982 | -43.25021 | 128° | 7km/h | 1201m | 4.4m/s | 16.6°C | 89.6% | 878.7hPa | 0V | 00:00:00 | 00:00:00 | 00:00:00 | |
| PU1XMG-16 | 2026-09-05 23:37:03 | -22.80960 | -43.25037 | 151° | 11km/h | 1136m | 6.2m/s | 17.1°C | 87.4% | 885.6hPa | 0V | 00:00:00 | 00:00:00 | 00:00:00 | |
| PU1XMG-16 | 2026-09-05 23:36:57 | -22.80960 | -43.25044 | 102° | 11km/h | 1105m | 5.2m/s | 17.4°C | 86.2% | 888.9hPa | 0V | 00:00:00 | 00:00:00 | 00:00:00 | |
| PU1XMG-16 | 2026-09-05 23:36:52 | -22.80947 | -43.25043 | 237° | 18km/h | 1073m | 6.4m/s | 17.6°C | 85.6% | 892.0hPa | 0V | 00:00:00 | 00:00:00 | 00:00:00 | |
| PU1XMG-16 | 2026-09-05 23:36:47 | -22.80936 | -43.25025 | 194° | 15km/h | 1043m | 5.8m/s | 17.8°C | 84.9% | 895.1hPa | 0V | 00:00:00 | 00:00:00 | 00:00:00 | |
| PU1XMG-16 | 2026-09-05 23:36:41 | -22.80905 | -43.25031 | 173° | 24km/h | 1007m | 6.4m/s | 18.1°C | 83.5% | 898.9hPa | 0V | 00:00:00 | 00:00:00 | 00:00:00 | |
| PU1XMG-16 | 2026-09-05 23:36:35 | -22.80890 | -43.25035 | 206° | 7km/h | 971m | 7.7m/s | 18.4°C | 81.9% | 902.3hPa | 0V | 00:00:00 | 00:00:00 | 00:00:00 | |
| PU1XMG-16 | 2026-09-05 23:36:30 | -22.80873 | -43.25026 | 201° | 15km/h | 937m | 4.1m/s | 18.7°C | 80.8% | 905.9hPa | 0V | 00:00:00 | 00:00:00 | 00:00:00 | |
| PU1XMG-16 | 2026-09-05 23:36:24 | -22.80856 | -43.25027 | 345° | 4km/h | 897m | 4.8m/s | 19.1°C | 79.1% | 910.2hPa | 0V | 00:00:00 | 00:00:00 | 00:00:00 | |
| PU1XMG-16 | 2026-09-05 23:36:18 | -22.80849 | -43.25019 | 217° | 16km/h | 861m | 7.2m/s | 19.4°C | 0% | 0hPa | 0V | 00:00:00 | 00:00:00 | 00:00:00 | |
| PU1XMG-16 | 2026-09-05 23:36:13 | -22.80836 | -43.25016 | 144° | 7km/h | 827m | 6.2m/s | 19.7°C | 0% | 0hPa | 0V | 00:00:00 | 00:00:00 | 00:00:00 | |
| PU1XMG-16 | 2026-09-05 23:36:07 | -22.80826 | -43.25016 | 217° | 4km/h | 789m | 6.2m/s | 20.0°C | 0% | 0hPa | 0V | 00:00:00 | 00:00:00 | 00:00:00 | |
| PU1XMG-16 | 2026-09-05 23:36:01 | -22.80821 | -43.25014 | 4° | 4km/h | 750m | 7.9m/s | 20.2°C | 0% | 0hPa | 0V | 00:00:00 | 00:00:00 | 00:00:00 | |
| PU1XMG-16 | 2026-09-05 23:35:56 | -22.80824 | -43.25016 | 160° | 5km/h | 722m | 5.6m/s | 20.4°C | 0% | 0hPa | 0V | 00:00:00 | 00:00:00 | 00:00:00 | |
| PU1XMG-16 | 2026-09-05 23:35:51 | -22.80821 | -43.25014 | 19° | 5km/h | 692m | 5.1m/s | 20.5°C | 0% | 0hPa | 0V | 00:00:00 | 00:00:00 | 00:00:00 | |
| PU1XMG-16 | 2026-09-05 23:35:46 | -22.80820 | -43.25023 | 124° | 11km/h | 663m | 4.9m/s | 0°C | 0% | 0hPa | 0V | 00:00:00 | 00:00:00 | 00:00:00 | |
| PU1XMG-16 | 2026-09-05 23:35:40 | -22.80820 | -43.25026 | 273° | 9km/h | 631m | 4.5m/s | 0°C | 0% | 0hPa | 0V | 00:00:00 | 00:00:00 | 00:00:00 | |
| PU1XMG-16 | 2026-09-05 23:35:34 | -22.80824 | -43.25021 | 331° | 4km/h | 591m | 7.8m/s | 0°C | 0% | 0hPa | 0V | 00:00:00 | 00:00:00 | 00:00:00 | |
| PU1XMG-16 | 2026-09-05 23:35:30 | -22.80825 | -43.25014 | 202° | 7km/h | 562m | 4.4m/s | 0°C | 0% | 0hPa | 0V | 00:00:00 | 00:00:00 | 00:00:00 | |
| PU1XMG-16 | 2026-09-05 23:35:23 | -22.80822 | -43.25016 | 18° | 7km/h | 522m | 6.0m/s | 0°C | 0% | 0hPa | 0V | 00:00:00 | 00:00:00 | 00:00:00 | |
| PU1XMG-16 | 2026-09-05 23:35:16 | -22.80834 | -43.25023 | 271° | 7km/h | 481m | 5.1m/s | 0°C | 0% | 0hPa | 0V | 00:00:00 | 00:00:00 | 00:00:00 | |
| PU1XMG-16 | 2026-09-05 23:35:00 | -22.80832 | -43.25033 | 167° | 2km/h | 391m | 4.2m/s | 0°C | 0% | 0hPa | 0V | 00:00:00 | 00:00:00 | 00:00:00 | |
| PU1XMG-16 | 2026-09-05 23:34:50 | -22.80836 | -43.25032 | 318° | 11km/h | 330m | 5.4m/s | 0°C | 0% | 0hPa | 0V | 00:00:00 | 00:00:00 | 00:00:00 |